Terminal Aerodrome Forecast
Issued by NWS Sioux Falls, SD

Home | Current Version | Previous Version | Graphics & Text | Print | Product List | Glossary On
Versions: 1 2 3 4 5 6 7 8 9 10 11 12 13 14
000
FTUS43 KFSD 070520
TAFHON
TAF
KHON 070520Z 0706/0806 29017G25KT P6SM SCT250
     FM071500 30020G29KT P6SM SCT035
     FM080200 30018G28KT P6SM BKN030=

USA.gov is the U.S. government's official web portal to all federal, state and local government web resources and services.